sensor_id;sensor_type;location;lat;lon;timestamp;pressure;altitude;pressure_sealevel;temperature;humidity
11038;BME280;5572;49.540;11.932;2023-02-22T00:00:50;96009.06;;;4.76;100.00
11038;BME280;5572;49.540;11.932;2023-02-22T00:03:19;96017.88;;;4.71;100.00
11038;BME280;5572;49.540;11.932;2023-02-22T00:05:52;96020.00;;;4.69;100.00
11038;BME280;5572;49.540;11.932;2023-02-22T00:08:21;96022.69;;;4.64;100.00
11038;BME280;5572;49.540;11.932;2023-02-22T00:10:48;96014.13;;;4.72;100.00
11038;BME280;5572;49.540;11.932;2023-02-22T00:13:17;96027.25;;;4.59;100.00
11038;BME280;5572;49.540;11.932;2023-02-22T00:15:47;96029.34;;;4.42;100.00
11038;BME280;5572;49.540;11.932;2023-02-22T00:18:15;96018.09;;;4.45;100.00
11038;BME280;5572;49.540;11.932;2023-02-22T00:20:43;96031.47;;;4.40;100.00
11038;BME280;5572;49.540;11.932;2023-02-22T00:23:15;96032.81;;;4.37;100.00
11038;BME280;5572;49.540;11.932;2023-02-22T00:25:44;95974.47;;;4.29;100.00
11038;BME280;5572;49.540;11.932;2023-02-22T00:28:11;95981.19;;;4.32;100.00
11038;BME280;5572;49.540;11.932;2023-02-22T00:30:39;95979.81;;;4.24;100.00
11038;BME280;5572;49.540;11.932;2023-02-22T00:33:08;95986.47;;;4.17;100.00
11038;BME280;5572;49.540;11.932;2023-02-22T00:35:35;95993.69;;;4.22;100.00
11038;BME280;5572;49.540;11.932;2023-02-22T00:38:02;95992.06;;;4.11;100.00
11038;BME280;5572;49.540;11.932;2023-02-22T00:40:32;95998.75;;;4.03;100.00
11038;BME280;5572;49.540;11.932;2023-02-22T00:43:01;96004.44;;;4.26;100.00
11038;BME280;5572;49.540;11.932;2023-02-22T00:45:31;96011.06;;;4.09;100.00
11038;BME280;5572;49.540;11.932;2023-02-22T00:47:59;96020.41;;;4.12;100.00
11038;BME280;5572;49.540;11.932;2023-02-22T00:50:29;96021.44;;;4.01;100.00
11038;BME280;5572;49.540;11.932;2023-02-22T00:52:56;96026.19;;;3.84;100.00
11038;BME280;5572;49.540;11.932;2023-02-22T00:55:25;96027.75;;;3.80;100.00
11038;BME280;5572;49.540;11.932;2023-02-22T00:57:53;96025.38;;;3.83;100.00
11038;BME280;5572;49.540;11.932;2023-02-22T01:00:23;96021.16;;;3.97;100.00
11038;BME280;5572;49.540;11.932;2023-02-22T01:02:50;96029.88;;;3.73;100.00
11038;BME280;5572;49.540;11.932;2023-02-22T01:05:18;96029.09;;;3.77;100.00
11038;BME280;5572;49.540;11.932;2023-02-22T01:07:45;96026.91;;;3.69;100.00
11038;BME280;5572;49.540;11.932;2023-02-22T01:10:13;96027.19;;;3.68;100.00
11038;BME280;5572;49.540;11.932;2023-02-22T01:12:40;96030.31;;;3.55;100.00
11038;BME280;5572;49.540;11.932;2023-02-22T01:15:09;96029.75;;;3.53;100.00
11038;BME280;5572;49.540;11.932;2023-02-22T01:17:37;96017.00;;;3.65;100.00
11038;BME280;5572;49.540;11.932;2023-02-22T01:20:06;96020.88;;;3.42;100.00
11038;BME280;5572;49.540;11.932;2023-02-22T01:22:37;96024.41;;;3.48;100.00
11038;BME280;5572;49.540;11.932;2023-02-22T01:25:04;96021.69;;;3.43;100.00
11038;BME280;5572;49.540;11.932;2023-02-22T01:27:31;96013.75;;;3.58;100.00
11038;BME280;5572;49.540;11.932;2023-02-22T01:29:58;96019.88;;;3.53;100.00
11038;BME280;5572;49.540;11.932;2023-02-22T01:32:26;96021.41;;;3.44;100.00
11038;BME280;5572;49.540;11.932;2023-02-22T01:34:53;96019.66;;;3.19;100.00
11038;BME280;5572;49.540;11.932;2023-02-22T01:37:20;95993.22;;;3.17;100.00
11038;BME280;5572;49.540;11.932;2023-02-22T01:39:47;95988.72;;;3.28;100.00
11038;BME280;5572;49.540;11.932;2023-02-22T01:42:13;95986.31;;;3.26;100.00
11038;BME280;5572;49.540;11.932;2023-02-22T01:44:40;95979.94;;;3.27;100.00
11038;BME280;5572;49.540;11.932;2023-02-22T01:47:07;95979.81;;;3.12;100.00
11038;BME280;5572;49.540;11.932;2023-02-22T01:49:37;95981.16;;;3.15;100.00
11038;BME280;5572;49.540;11.932;2023-02-22T02:02:30;95985.56;;;3.36;100.00
11038;BME280;5572;49.540;11.932;2023-02-22T02:11:35;96003.97;;;3.27;100.00
11038;BME280;5572;49.540;11.932;2023-02-22T02:14:06;96010.03;;;3.18;100.00
11038;BME280;5572;49.540;11.932;2023-02-22T02:16:37;96020.75;;;3.23;100.00
11038;BME280;5572;49.540;11.932;2023-02-22T02:22:34;96017.59;;;3.31;100.00
11038;BME280;5572;49.540;11.932;2023-02-22T02:35:30;96020.75;;;3.23;100.00
11038;BME280;5572;49.540;11.932;2023-02-22T02:47:41;96045.94;;;3.37;100.00
11038;BME280;5572;49.540;11.932;2023-02-22T02:50:50;96055.78;;;3.31;100.00
11038;BME280;5572;49.540;11.932;2023-02-22T02:53:32;96060.03;;;3.27;100.00
11038;BME280;5572;49.540;11.932;2023-02-22T03:06:27;96062.72;;;3.27;100.00
11038;BME280;5572;49.540;11.932;2023-02-22T03:09:23;96066.28;;;3.42;100.00
11038;BME280;5572;49.540;11.932;2023-02-22T03:11:58;96065.22;;;3.43;100.00
11038;BME280;5572;49.540;11.932;2023-02-22T03:14:37;96075.44;;;3.51;100.00
11038;BME280;5572;49.540;11.932;2023-02-22T03:17:14;96085.84;;;3.48;100.00
11038;BME280;5572;49.540;11.932;2023-02-22T03:19:45;96085.00;;;3.47;100.00
11038;BME280;5572;49.540;11.932;2023-02-22T03:22:21;96080.28;;;3.59;100.00
11038;BME280;5572;49.540;11.932;2023-02-22T03:24:55;96085.38;;;3.61;100.00
11038;BME280;5572;49.540;11.932;2023-02-22T03:27:26;96084.28;;;3.57;100.00
11038;BME280;5572;49.540;11.932;2023-02-22T03:29:57;96085.91;;;3.63;100.00
11038;BME280;5572;49.540;11.932;2023-02-22T03:32:29;96089.09;;;3.60;100.00
11038;BME280;5572;49.540;11.932;2023-02-22T03:35:02;96099.31;;;3.68;100.00
11038;BME280;5572;49.540;11.932;2023-02-22T03:37:35;96099.00;;;3.59;100.00
11038;BME280;5572;49.540;11.932;2023-02-22T03:40:06;96099.53;;;3.61;100.00
11038;BME280;5572;49.540;11.932;2023-02-22T03:42:40;96108.13;;;3.63;100.00
11038;BME280;5572;49.540;11.932;2023-02-22T03:45:10;96118.53;;;3.65;100.00
11038;BME280;5572;49.540;11.932;2023-02-22T03:47:41;96116.41;;;3.67;100.00
11038;BME280;5572;49.540;11.932;2023-02-22T03:50:11;96115.09;;;3.69;100.00
11038;BME280;5572;49.540;11.932;2023-02-22T03:52:41;96130.84;;;3.66;100.00
11038;BME280;5572;49.540;11.932;2023-02-22T03:55:10;96101.66;;;3.59;100.00
11038;BME280;5572;49.540;11.932;2023-02-22T03:57:39;96075.22;;;3.63;100.00
11038;BME280;5572;49.540;11.932;2023-02-22T04:00:09;96062.38;;;3.60;100.00
11038;BME280;5572;49.540;11.932;2023-02-22T04:02:35;96051.69;;;3.55;100.00
11038;BME280;5572;49.540;11.932;2023-02-22T04:05:02;96040.72;;;3.51;100.00
11038;BME280;5572;49.540;11.932;2023-02-22T04:07:29;96044.50;;;3.65;100.00
11038;BME280;5572;49.540;11.932;2023-02-22T04:09:57;96027.19;;;3.68;100.00
11038;BME280;5572;49.540;11.932;2023-02-22T04:12:23;96016.22;;;3.69;100.00
11038;BME280;5572;49.540;11.932;2023-02-22T04:14:50;96010.88;;;3.74;100.00
11038;BME280;5572;49.540;11.932;2023-02-22T04:17:16;96020.72;;;3.64;100.00
11038;BME280;5572;49.540;11.932;2023-02-22T04:19:42;96028.81;;;3.74;100.00
11038;BME280;5572;49.540;11.932;2023-02-22T04:22:10;96039.31;;;3.44;100.00
11038;BME280;5572;49.540;11.932;2023-02-22T04:24:36;96050.09;;;3.59;100.00
11038;BME280;5572;49.540;11.932;2023-02-22T04:27:04;96047.38;;;3.54;100.00
11038;BME280;5572;49.540;11.932;2023-02-22T04:29:31;96051.69;;;3.60;100.00
11038;BME280;5572;49.540;11.932;2023-02-22T04:31:57;96049.84;;;3.65;100.00
11038;BME280;5572;49.540;11.932;2023-02-22T04:34:23;96059.47;;;3.66;100.00
11038;BME280;5572;49.540;11.932;2023-02-22T04:36:50;96071.50;;;3.64;100.00
11038;BME280;5572;49.540;11.932;2023-02-22T04:39:17;96081.91;;;3.65;100.00
11038;BME280;5572;49.540;11.932;2023-02-22T04:41:43;96081.13;;;3.65;100.00
11038;BME280;5572;49.540;11.932;2023-02-22T04:44:13;96094.22;;;3.66;100.00
11038;BME280;5572;49.540;11.932;2023-02-22T04:46:39;96099.25;;;3.58;100.00
11038;BME280;5572;49.540;11.932;2023-02-22T04:49:06;96109.41;;;3.61;100.00
11038;BME280;5572;49.540;11.932;2023-02-22T04:51:32;96108.63;;;3.60;100.00
11038;BME280;5572;49.540;11.932;2023-02-22T04:54:00;96098.13;;;3.49;100.00
11038;BME280;5572;49.540;11.932;2023-02-22T04:56:26;96118.41;;;3.50;100.00
11038;BME280;5572;49.540;11.932;2023-02-22T04:58:53;96129.88;;;3.45;100.00
11038;BME280;5572;49.540;11.932;2023-02-22T05:01:21;96146.78;;;3.56;100.00
11038;BME280;5572;49.540;11.932;2023-02-22T05:03:47;96146.22;;;3.49;100.00
11038;BME280;5572;49.540;11.932;2023-02-22T05:06:16;96160.44;;;3.59;100.00
11038;BME280;5572;49.540;11.932;2023-02-22T05:08:51;96165.72;;;3.54;100.00
11038;BME280;5572;49.540;11.932;2023-02-22T05:11:17;96180.19;;;3.53;100.00
11038;BME280;5572;49.540;11.932;2023-02-22T05:13:44;96182.31;;;3.56;100.00
11038;BME280;5572;49.540;11.932;2023-02-22T05:16:11;96178.28;;;3.49;100.00
11038;BME280;5572;49.540;11.932;2023-02-22T05:18:40;96193.47;;;3.48;100.00
11038;BME280;5572;49.540;11.932;2023-02-22T05:21:07;96181.38;;;3.41;100.00
11038;BME280;5572;49.540;11.932;2023-02-22T05:23:33;96197.47;;;3.46;100.00
11038;BME280;5572;49.540;11.932;2023-02-22T05:26:00;96209.69;;;3.37;100.00
11038;BME280;5572;49.540;11.932;2023-02-22T05:28:26;96206.81;;;3.43;100.00
11038;BME280;5572;49.540;11.932;2023-02-22T05:30:53;96208.72;;;3.48;100.00
11038;BME280;5572;49.540;11.932;2023-02-22T05:33:20;96214.94;;;3.58;100.00
11038;BME280;5572;49.540;11.932;2023-02-22T05:35:48;96216.84;;;3.63;100.00
11038;BME280;5572;49.540;11.932;2023-02-22T05:38:15;96223.53;;;3.65;100.00
11038;BME280;5572;49.540;11.932;2023-02-22T05:40:42;96222.19;;;3.63;100.00
11038;BME280;5572;49.540;11.932;2023-02-22T05:43:09;96223.22;;;3.57;100.00
11038;BME280;5572;49.540;11.932;2023-02-22T05:45:35;96231.47;;;3.55;100.00
11038;BME280;5572;49.540;11.932;2023-02-22T05:48:02;96239.47;;;3.55;100.00
11038;BME280;5572;49.540;11.932;2023-02-22T05:50:29;96243.22;;;3.54;100.00
11038;BME280;5572;49.540;11.932;2023-02-22T05:52:58;96253.00;;;3.44;100.00
11038;BME280;5572;49.540;11.932;2023-02-22T05:55:25;96246.25;;;3.37;100.00
11038;BME280;5572;49.540;11.932;2023-02-22T05:57:52;96252.50;;;3.47;100.00
11038;BME280;5572;49.540;11.932;2023-02-22T06:00:20;96256.44;;;3.39;100.00
11038;BME280;5572;49.540;11.932;2023-02-22T06:02:53;96261.22;;;3.38;100.00
11038;BME280;5572;49.540;11.932;2023-02-22T06:05:19;96264.91;;;3.32;100.00
11038;BME280;5572;49.540;11.932;2023-02-22T06:07:46;96256.38;;;3.35;100.00
11038;BME280;5572;49.540;11.932;2023-02-22T06:10:14;96265.38;;;3.29;100.00
11038;BME280;5572;49.540;11.932;2023-02-22T06:12:41;96255.28;;;3.31;100.00
11038;BME280;5572;49.540;11.932;2023-02-22T06:15:08;96274.22;;;3.29;100.00
11038;BME280;5572;49.540;11.932;2023-02-22T06:17:35;96271.56;;;3.29;100.00
11038;BME280;5572;49.540;11.932;2023-02-22T06:20:04;96270.56;;;3.40;100.00
11038;BME280;5572;49.540;11.932;2023-02-22T06:22:32;96275.22;;;3.49;100.00
11038;BME280;5572;49.540;11.932;2023-02-22T06:24:58;96278.91;;;3.43;100.00
11038;BME280;5572;49.540;11.932;2023-02-22T06:27:30;96298.53;;;3.54;100.00
11038;BME280;5572;49.540;11.932;2023-02-22T06:29:57;96292.91;;;3.55;100.00
11038;BME280;5572;49.540;11.932;2023-02-22T06:32:24;96289.34;;;3.45;100.00
11038;BME280;5572;49.540;11.932;2023-02-22T06:34:50;96285.94;;;3.54;100.00
11038;BME280;5572;49.540;11.932;2023-02-22T06:37:17;96298.88;;;3.62;100.00
11038;BME280;5572;49.540;11.932;2023-02-22T06:39:44;96294.13;;;3.43;100.00
11038;BME280;5572;49.540;11.932;2023-02-22T06:42:10;96294.63;;;3.66;100.00
11038;BME280;5572;49.540;11.932;2023-02-22T06:44:38;96305.28;;;3.61;100.00
11038;BME280;5572;49.540;11.932;2023-02-22T06:47:05;96307.19;;;3.66;100.00
11038;BME280;5572;49.540;11.932;2023-02-22T06:49:31;96315.34;;;3.81;100.00
11038;BME280;5572;49.540;11.932;2023-02-22T06:51:58;96313.94;;;3.47;100.00
11038;BME280;5572;49.540;11.932;2023-02-22T06:54:25;96325.44;;;3.47;100.00
11038;BME280;5572;49.540;11.932;2023-02-22T06:56:52;96333.72;;;3.72;100.00
11038;BME280;5572;49.540;11.932;2023-02-22T06:59:18;96336.31;;;3.67;100.00
11038;BME280;5572;49.540;11.932;2023-02-22T07:01:47;96343.72;;;3.34;100.00
11038;BME280;5572;49.540;11.932;2023-02-22T07:04:13;96348.25;;;3.60;100.00
11038;BME280;5572;49.540;11.932;2023-02-22T07:06:44;96351.38;;;3.73;100.00
11038;BME280;5572;49.540;11.932;2023-02-22T07:09:11;96357.13;;;3.87;100.00
11038;BME280;5572;49.540;11.932;2023-02-22T07:11:38;96360.19;;;4.00;100.00
11038;BME280;5572;49.540;11.932;2023-02-22T07:14:05;96382.53;;;4.16;100.00
11038;BME280;5572;49.540;11.932;2023-02-22T07:16:31;96356.09;;;3.93;100.00
11038;BME280;5572;49.540;11.932;2023-02-22T07:19:01;96367.41;;;3.73;100.00
11038;BME280;5572;49.540;11.932;2023-02-22T07:21:29;96387.09;;;3.89;100.00
11038;BME280;5572;49.540;11.932;2023-02-22T07:23:56;96398.88;;;4.19;100.00
11038;BME280;5572;49.540;11.932;2023-02-22T07:26:25;96387.78;;;4.32;100.00
11038;BME280;5572;49.540;11.932;2023-02-22T07:28:52;96381.28;;;4.23;100.00
11038;BME280;5572;49.540;11.932;2023-02-22T07:31:19;96394.84;;;3.90;100.00
11038;BME280;5572;49.540;11.932;2023-02-22T07:33:46;96417.66;;;4.55;100.00
11038;BME280;5572;49.540;11.932;2023-02-22T07:36:14;96404.28;;;3.98;100.00
11038;BME280;5572;49.540;11.932;2023-02-22T07:38:42;96427.41;;;3.87;100.00
11038;BME280;5572;49.540;11.932;2023-02-22T07:41:08;96450.28;;;4.00;100.00
11038;BME280;5572;49.540;11.932;2023-02-22T07:43:35;96449.03;;;4.33;100.00
11038;BME280;5572;49.540;11.932;2023-02-22T07:46:02;96430.13;;;4.45;100.00
11038;BME280;5572;49.540;11.932;2023-02-22T07:48:30;96440.06;;;4.18;100.00
11038;BME280;5572;49.540;11.932;2023-02-22T07:50:57;96457.06;;;4.65;100.00
11038;BME280;5572;49.540;11.932;2023-02-22T07:53:28;96427.38;;;4.35;100.00
11038;BME280;5572;49.540;11.932;2023-02-22T07:55:57;96437.28;;;4.34;100.00
11038;BME280;5572;49.540;11.932;2023-02-22T07:58:27;96452.56;;;4.65;100.00
11038;BME280;5572;49.540;11.932;2023-02-22T08:00:54;96456.44;;;4.84;100.00
11038;BME280;5572;49.540;11.932;2023-02-22T08:03:23;96461.63;;;4.96;100.00
11038;BME280;5572;49.540;11.932;2023-02-22T08:05:52;96454.22;;;5.49;100.00
11038;BME280;5572;49.540;11.932;2023-02-22T08:08:19;96447.25;;;5.53;100.00
11038;BME280;5572;49.540;11.932;2023-02-22T08:10:49;96466.75;;;5.85;100.00
11038;BME280;5572;49.540;11.932;2023-02-22T08:13:17;96456.19;;;5.63;100.00
11038;BME280;5572;49.540;11.932;2023-02-22T08:15:44;96478.41;;;6.15;100.00
11038;BME280;5572;49.540;11.932;2023-02-22T08:18:13;96469.31;;;6.21;100.00
11038;BME280;5572;49.540;11.932;2023-02-22T08:20:42;96482.25;;;6.44;100.00
11038;BME280;5572;49.540;11.932;2023-02-22T08:23:09;96466.63;;;6.26;100.00
11038;BME280;5572;49.540;11.932;2023-02-22T08:25:36;96437.59;;;5.52;100.00
11038;BME280;5572;49.540;11.932;2023-02-22T08:28:07;96467.66;;;6.10;100.00
11038;BME280;5572;49.540;11.932;2023-02-22T08:30:34;96437.09;;;5.60;100.00
11038;BME280;5572;49.540;11.932;2023-02-22T08:33:01;96441.94;;;5.58;100.00
11038;BME280;5572;49.540;11.932;2023-02-22T08:35:29;96433.63;;;5.59;100.00
11038;BME280;5572;49.540;11.932;2023-02-22T08:37:59;96472.78;;;6.16;100.00
11038;BME280;5572;49.540;11.932;2023-02-22T08:40:29;96480.13;;;6.56;100.00
11038;BME280;5572;49.540;11.932;2023-02-22T08:42:56;96475.81;;;6.65;100.00
11038;BME280;5572;49.540;11.932;2023-02-22T08:45:25;96464.56;;;6.58;100.00
11038;BME280;5572;49.540;11.932;2023-02-22T08:47:52;96455.94;;;6.46;100.00
11038;BME280;5572;49.540;11.932;2023-02-22T08:50:22;96482.03;;;6.90;100.00
11038;BME280;5572;49.540;11.932;2023-02-22T08:52:49;96464.84;;;6.76;100.00
11038;BME280;5572;49.540;11.932;2023-02-22T08:55:18;96479.38;;;7.15;100.00
11038;BME280;5572;49.540;11.932;2023-02-22T08:57:45;96439.59;;;6.87;100.00
11038;BME280;5572;49.540;11.932;2023-02-22T09:00:13;96423.47;;;6.62;100.00
11038;BME280;5572;49.540;11.932;2023-02-22T09:02:41;96440.66;;;7.01;100.00
11038;BME280;5572;49.540;11.932;2023-02-22T09:05:08;96418.91;;;7.02;100.00
11038;BME280;5572;49.540;11.932;2023-02-22T09:07:35;96407.91;;;6.84;100.00
11038;BME280;5572;49.540;11.932;2023-02-22T09:10:02;96427.75;;;7.18;100.00
11038;BME280;5572;49.540;11.932;2023-02-22T09:12:29;96425.59;;;7.10;100.00
11038;BME280;5572;49.540;11.932;2023-02-22T09:14:55;96437.41;;;7.34;100.00
11038;BME280;5572;49.540;11.932;2023-02-22T09:17:22;96433.66;;;7.35;100.00
11038;BME280;5572;49.540;11.932;2023-02-22T09:19:50;96436.00;;;7.56;100.00
11038;BME280;5572;49.540;11.932;2023-02-22T09:22:17;96437.31;;;7.73;100.00
11038;BME280;5572;49.540;11.932;2023-02-22T09:24:44;96435.84;;;8.01;100.00
11038;BME280;5572;49.540;11.932;2023-02-22T09:27:10;96422.44;;;7.91;100.00
11038;BME280;5572;49.540;11.932;2023-02-22T09:29:37;96429.28;;;8.27;100.00
11038;BME280;5572;49.540;11.932;2023-02-22T09:32:04;96423.00;;;8.41;100.00
11038;BME280;5572;49.540;11.932;2023-02-22T09:34:31;96403.28;;;8.02;100.00
11038;BME280;5572;49.540;11.932;2023-02-22T09:37:01;96425.00;;;8.64;100.00
11038;BME280;5572;49.540;11.932;2023-02-22T09:39:29;96429.47;;;8.78;100.00
11038;BME280;5572;49.540;11.932;2023-02-22T09:42:08;96397.53;;;8.62;100.00
11038;BME280;5572;49.540;11.932;2023-02-22T09:45:02;96389.16;;;8.63;100.00
11038;BME280;5572;49.540;11.932;2023-02-22T09:47:40;96399.13;;;9.01;100.00
11038;BME280;5572;49.540;11.932;2023-02-22T09:50:13;96388.31;;;8.73;100.00
11038;BME280;5572;49.540;11.932;2023-02-22T09:52:52;96359.97;;;8.42;100.00
11038;BME280;5572;49.540;11.932;2023-02-22T09:55:27;96380.72;;;9.60;100.00
11038;BME280;5572;49.540;11.932;2023-02-22T09:58:00;96373.53;;;9.50;100.00
11038;BME280;5572;49.540;11.932;2023-02-22T10:03:29;96377.44;;;9.86;100.00
11038;BME280;5572;49.540;11.932;2023-02-22T10:06:03;96379.78;;;9.93;100.00
11038;BME280;5572;49.540;11.932;2023-02-22T10:08:42;96362.00;;;10.65;100.00
11038;BME280;5572;49.540;11.932;2023-02-22T10:11:33;96361.84;;;11.07;100.00
11038;BME280;5572;49.540;11.932;2023-02-22T10:14:20;96331.69;;;11.00;100.00
11038;BME280;5572;49.540;11.932;2023-02-22T10:17:05;96306.69;;;10.90;100.00
11038;BME280;5572;49.540;11.932;2023-02-22T10:20:06;96242.78;;;10.67;100.00
11038;BME280;5572;49.540;11.932;2023-02-22T10:23:07;96230.59;;;10.83;100.00
11038;BME280;5572;49.540;11.932;2023-02-22T10:25:49;96184.50;;;10.61;100.00
11038;BME280;5572;49.540;11.932;2023-02-22T10:28:23;96176.50;;;11.36;100.00
11038;BME280;5572;49.540;11.932;2023-02-22T10:30:57;96164.94;;;11.93;100.00
11038;BME280;5572;49.540;11.932;2023-02-22T10:33:29;96170.88;;;11.60;100.00
11038;BME280;5572;49.540;11.932;2023-02-22T10:35:58;96140.50;;;11.36;100.00
11038;BME280;5572;49.540;11.932;2023-02-22T10:38:29;96107.34;;;11.30;100.00
11038;BME280;5572;49.540;11.932;2023-02-22T10:41:19;96096.34;;;11.62;100.00
11038;BME280;5572;49.540;11.932;2023-02-22T10:43:49;96065.53;;;11.72;100.00
11038;BME280;5572;49.540;11.932;2023-02-22T10:46:17;96034.84;;;11.76;100.00
11038;BME280;5572;49.540;11.932;2023-02-22T10:48:49;95995.09;;;11.94;100.00
11038;BME280;5572;49.540;11.932;2023-02-22T10:51:16;95953.72;;;12.57;100.00
11038;BME280;5572;49.540;11.932;2023-02-22T10:53:44;95931.28;;;12.82;100.00
11038;BME280;5572;49.540;11.932;2023-02-22T10:56:21;95874.81;;;12.76;100.00
11038;BME280;5572;49.540;11.932;2023-02-22T10:58:52;95831.34;;;13.26;100.00
11038;BME280;5572;49.540;11.932;2023-02-22T11:01:24;95828.03;;;12.53;100.00
11038;BME280;5572;49.540;11.932;2023-02-22T11:03:57;95721.97;;;13.26;100.00
11038;BME280;5572;49.540;11.932;2023-02-22T11:06:24;95658.94;;;12.91;100.00
11038;BME280;5572;49.540;11.932;2023-02-22T11:08:50;95276.72;;;13.31;100.00
11038;BME280;5572;49.540;11.932;2023-02-22T11:11:30;95248.13;;;12.89;100.00
11038;BME280;5572;49.540;11.932;2023-02-22T11:13:58;95201.41;;;13.40;100.00
11038;BME280;5572;49.540;11.932;2023-02-22T11:16:30;95244.78;;;13.99;100.00
11038;BME280;5572;49.540;11.932;2023-02-22T11:19:02;95259.06;;;13.49;100.00
11038;BME280;5572;49.540;11.932;2023-02-22T11:21:34;95225.78;;;13.99;100.00
11038;BME280;5572;49.540;11.932;2023-02-22T11:24:02;95304.69;;;13.55;100.00
11038;BME280;5572;49.540;11.932;2023-02-22T11:26:39;95306.16;;;13.88;100.00
11038;BME280;5572;49.540;11.932;2023-02-22T11:29:12;95336.50;;;14.14;100.00
11038;BME280;5572;49.540;11.932;2023-02-22T11:31:44;95401.72;;;14.02;100.00
11038;BME280;5572;49.540;11.932;2023-02-22T11:34:28;95436.59;;;13.68;100.00
11038;BME280;5572;49.540;11.932;2023-02-22T11:37:14;95430.72;;;14.46;100.00
11038;BME280;5572;49.540;11.932;2023-02-22T11:39:41;95481.94;;;14.32;100.00
11038;BME280;5572;49.540;11.932;2023-02-22T11:42:22;95521.13;;;14.55;100.00
11038;BME280;5572;49.540;11.932;2023-02-22T11:45:07;95578.81;;;14.37;100.00
11038;BME280;5572;49.540;11.932;2023-02-22T11:47:35;95612.31;;;14.41;100.00
11038;BME280;5572;49.540;11.932;2023-02-22T11:50:09;95660.72;;;14.47;100.00
11038;BME280;5572;49.540;11.932;2023-02-22T11:52:48;95715.88;;;14.15;100.00
11038;BME280;5572;49.540;11.932;2023-02-22T11:55:22;95768.97;;;14.86;100.00
11038;BME280;5572;49.540;11.932;2023-02-22T11:58:00;95798.97;;;15.30;100.00
11038;BME280;5572;49.540;11.932;2023-02-22T12:00:43;95855.47;;;15.01;100.00
11038;BME280;5572;49.540;11.932;2023-02-22T12:06:31;95914.47;;;14.68;100.00
11038;BME280;5572;49.540;11.932;2023-02-22T12:09:10;95967.53;;;14.16;100.00
11038;BME280;5572;49.540;11.932;2023-02-22T12:11:51;96000.25;;;14.28;100.00
11038;BME280;5572;49.540;11.932;2023-02-22T12:14:27;96037.09;;;14.55;100.00
11038;BME280;5572;49.540;11.932;2023-02-22T12:17:15;96063.69;;;14.49;100.00
11038;BME280;5572;49.540;11.932;2023-02-22T12:19:47;96065.19;;;14.75;100.00
11038;BME280;5572;49.540;11.932;2023-02-22T12:22:19;96112.00;;;14.44;100.00
11038;BME280;5572;49.540;11.932;2023-02-22T12:24:50;96148.81;;;13.82;100.00
11038;BME280;5572;49.540;11.932;2023-02-22T12:27:21;96169.75;;;13.90;100.00
11038;BME280;5572;49.540;11.932;2023-02-22T12:29:55;96162.25;;;14.29;100.00
11038;BME280;5572;49.540;11.932;2023-02-22T12:32:28;96158.41;;;13.96;100.00
11038;BME280;5572;49.540;11.932;2023-02-22T12:35:07;96159.50;;;14.46;100.00
11038;BME280;5572;49.540;11.932;2023-02-22T12:37:46;96161.38;;;14.71;100.00
11038;BME280;5572;49.540;11.932;2023-02-22T12:40:26;96195.34;;;14.57;100.00
11038;BME280;5572;49.540;11.932;2023-02-22T12:42:59;96222.88;;;14.47;100.00
11038;BME280;5572;49.540;11.932;2023-02-22T12:45:34;96241.25;;;14.50;100.00
11038;BME280;5572;49.540;11.932;2023-02-22T12:48:15;96267.03;;;14.52;100.00
11038;BME280;5572;49.540;11.932;2023-02-22T12:50:49;96276.66;;;15.21;100.00
11038;BME280;5572;49.540;11.932;2023-02-22T12:53:20;96294.44;;;15.27;100.00
11038;BME280;5572;49.540;11.932;2023-02-22T12:55:51;96310.13;;;15.21;100.00
11038;BME280;5572;49.540;11.932;2023-02-22T12:58:25;96405.63;;;15.25;100.00
11038;BME280;5572;49.540;11.932;2023-02-22T13:01:00;96424.81;;;14.86;100.00
11038;BME280;5572;49.540;11.932;2023-02-22T13:03:35;96425.41;;;14.49;100.00
11038;BME280;5572;49.540;11.932;2023-02-22T13:06:13;96432.06;;;15.24;100.00
11038;BME280;5572;49.540;11.932;2023-02-22T13:08:50;96466.16;;;15.22;100.00
11038;BME280;5572;49.540;11.932;2023-02-22T13:11:23;96453.50;;;15.59;100.00
11038;BME280;5572;49.540;11.932;2023-02-22T13:14:04;96471.78;;;15.25;100.00
11038;BME280;5572;49.540;11.932;2023-02-22T13:16:40;96459.88;;;15.63;100.00
11038;BME280;5572;49.540;11.932;2023-02-22T13:19:23;96501.22;;;15.06;100.00
11038;BME280;5572;49.540;11.932;2023-02-22T13:21:56;96516.13;;;15.09;100.00
11038;BME280;5572;49.540;11.932;2023-02-22T13:24:27;96525.72;;;15.15;100.00
11038;BME280;5572;49.540;11.932;2023-02-22T13:26:59;96520.00;;;15.50;100.00
11038;BME280;5572;49.540;11.932;2023-02-22T13:29:29;96526.56;;;15.49;100.00
11038;BME280;5572;49.540;11.932;2023-02-22T13:32:13;96517.22;;;15.92;100.00
11038;BME280;5572;49.540;11.932;2023-02-22T13:35:05;96534.06;;;16.11;100.00
11038;BME280;5572;49.540;11.932;2023-02-22T13:37:59;96570.50;;;15.64;100.00
11038;BME280;5572;49.540;11.932;2023-02-22T13:40:45;96597.25;;;15.46;100.00
11038;BME280;5572;49.540;11.932;2023-02-22T13:43:32;96616.94;;;15.43;100.00
11038;BME280;5572;49.540;11.932;2023-02-22T13:49:18;96580.25;;;15.82;100.00
11038;BME280;5572;49.540;11.932;2023-02-22T13:51:48;96579.81;;;15.80;100.00
11038;BME280;5572;49.540;11.932;2023-02-22T13:54:25;96599.81;;;15.42;100.00
11038;BME280;5572;49.540;11.932;2023-02-22T13:56:55;96599.19;;;15.70;100.00
11038;BME280;5572;49.540;11.932;2023-02-22T13:59:25;96631.78;;;15.20;100.00
11038;BME280;5572;49.540;11.932;2023-02-22T14:01:55;96626.78;;;16.11;100.00
11038;BME280;5572;49.540;11.932;2023-02-22T14:04:44;96670.19;;;15.65;100.00
11038;BME280;5572;49.540;11.932;2023-02-22T14:10:45;96668.72;;;15.51;100.00
11038;BME280;5572;49.540;11.932;2023-02-22T14:13:13;96662.69;;;15.79;100.00
11038;BME280;5572;49.540;11.932;2023-02-22T14:18:41;96697.56;;;15.44;100.00
11038;BME280;5572;49.540;11.932;2023-02-22T14:21:11;96741.09;;;15.27;100.00
11038;BME280;5572;49.540;11.932;2023-02-22T14:23:39;96736.94;;;15.07;100.00